sensor_id;sensor_type;location;lat;lon;timestamp;pressure;altitude;pressure_sealevel;temperature;humidity
21545;BME280;10933;50.754;11.508;2022-07-17T00:01:45;100556.56;;;8.75;100.00
21545;BME280;10933;50.754;11.508;2022-07-17T00:04:11;100565.88;;;8.79;100.00
21545;BME280;10933;50.754;11.508;2022-07-17T00:06:37;100567.47;;;8.87;100.00
21545;BME280;10933;50.754;11.508;2022-07-17T00:09:03;100565.44;;;8.82;100.00
21545;BME280;10933;50.754;11.508;2022-07-17T00:11:30;100562.56;;;8.77;100.00
21545;BME280;10933;50.754;11.508;2022-07-17T00:13:56;100569.66;;;8.65;100.00
21545;BME280;10933;50.754;11.508;2022-07-17T00:16:22;100565.09;;;8.65;100.00
21545;BME280;10933;50.754;11.508;2022-07-17T00:18:48;100559.31;;;8.62;100.00
21545;BME280;10933;50.754;11.508;2022-07-17T00:21:15;100559.78;;;8.52;100.00
21545;BME280;10933;50.754;11.508;2022-07-17T00:23:42;100564.72;;;8.48;100.00
21545;BME280;10933;50.754;11.508;2022-07-17T00:26:08;100563.47;;;8.51;100.00
21545;BME280;10933;50.754;11.508;2022-07-17T00:28:34;100561.81;;;8.50;100.00
21545;BME280;10933;50.754;11.508;2022-07-17T00:31:00;100566.00;;;8.46;100.00
21545;BME280;10933;50.754;11.508;2022-07-17T00:33:26;100568.50;;;8.41;100.00
21545;BME280;10933;50.754;11.508;2022-07-17T00:35:52;100565.38;;;8.37;100.00
21545;BME280;10933;50.754;11.508;2022-07-17T00:38:19;100570.16;;;8.29;100.00
21545;BME280;10933;50.754;11.508;2022-07-17T00:40:45;100577.41;;;8.35;100.00
21545;BME280;10933;50.754;11.508;2022-07-17T00:43:11;100575.09;;;8.32;100.00
21545;BME280;10933;50.754;11.508;2022-07-17T00:45:38;100583.00;;;8.26;100.00
21545;BME280;10933;50.754;11.508;2022-07-17T00:48:07;100578.22;;;8.22;100.00
21545;BME280;10933;50.754;11.508;2022-07-17T00:50:37;100585.50;;;8.15;100.00
21545;BME280;10933;50.754;11.508;2022-07-17T00:53:05;100583.84;;;8.14;100.00
21545;BME280;10933;50.754;11.508;2022-07-17T00:55:31;100579.69;;;8.11;100.00
21545;BME280;10933;50.754;11.508;2022-07-17T00:58:01;100578.47;;;8.07;100.00
21545;BME280;10933;50.754;11.508;2022-07-17T01:00:29;100580.53;;;8.05;100.00
21545;BME280;10933;50.754;11.508;2022-07-17T01:02:55;100571.25;;;8.01;100.00
21545;BME280;10933;50.754;11.508;2022-07-17T01:05:24;100590.06;;;7.94;100.00
21545;BME280;10933;50.754;11.508;2022-07-17T01:07:51;100581.59;;;7.91;100.00
21545;BME280;10933;50.754;11.508;2022-07-17T01:10:18;100584.88;;;7.86;100.00
21545;BME280;10933;50.754;11.508;2022-07-17T01:12:46;100581.81;;;7.83;100.00
21545;BME280;10933;50.754;11.508;2022-07-17T01:15:13;100581.59;;;7.78;100.00
21545;BME280;10933;50.754;11.508;2022-07-17T01:17:40;100586.38;;;7.76;100.00
21545;BME280;10933;50.754;11.508;2022-07-17T01:20:08;100593.78;;;7.74;100.00
21545;BME280;10933;50.754;11.508;2022-07-17T01:22:43;100597.91;;;7.70;100.00
21545;BME280;10933;50.754;11.508;2022-07-17T01:25:10;100593.59;;;7.68;100.00
21545;BME280;10933;50.754;11.508;2022-07-17T01:27:37;100603.50;;;7.68;100.00
21545;BME280;10933;50.754;11.508;2022-07-17T01:30:04;100591.72;;;7.56;100.00
21545;BME280;10933;50.754;11.508;2022-07-17T01:32:35;100607.00;;;7.55;100.00
21545;BME280;10933;50.754;11.508;2022-07-17T01:35:02;100602.88;;;7.59;100.00
21545;BME280;10933;50.754;11.508;2022-07-17T01:37:29;100604.53;;;7.54;100.00
21545;BME280;10933;50.754;11.508;2022-07-17T01:39:55;100598.09;;;7.48;100.00
21545;BME280;10933;50.754;11.508;2022-07-17T01:42:23;100609.69;;;7.55;100.00
21545;BME280;10933;50.754;11.508;2022-07-17T01:44:50;100606.81;;;7.50;100.00
21545;BME280;10933;50.754;11.508;2022-07-17T01:47:17;100596.66;;;7.39;100.00
21545;BME280;10933;50.754;11.508;2022-07-17T01:49:45;100599.13;;;7.47;100.00
21545;BME280;10933;50.754;11.508;2022-07-17T01:52:12;100594.59;;;7.41;100.00
21545;BME280;10933;50.754;11.508;2022-07-17T01:54:38;100603.47;;;7.35;100.00
21545;BME280;10933;50.754;11.508;2022-07-17T01:57:05;100599.53;;;7.24;100.00
21545;BME280;10933;50.754;11.508;2022-07-17T01:59:31;100600.34;;;7.12;100.00
21545;BME280;10933;50.754;11.508;2022-07-17T02:01:57;100598.03;;;7.08;100.00
21545;BME280;10933;50.754;11.508;2022-07-17T02:04:23;100594.91;;;6.98;100.00
21545;BME280;10933;50.754;11.508;2022-07-17T02:06:50;100585.84;;;6.99;100.00
21545;BME280;10933;50.754;11.508;2022-07-17T02:09:18;100594.28;;;6.96;100.00
21545;BME280;10933;50.754;11.508;2022-07-17T02:11:44;100603.16;;;6.97;100.00
21545;BME280;10933;50.754;11.508;2022-07-17T02:14:10;100586.25;;;6.96;100.00
21545;BME280;10933;50.754;11.508;2022-07-17T02:16:36;100599.44;;;6.91;100.00
21545;BME280;10933;50.754;11.508;2022-07-17T02:19:03;100596.53;;;6.86;100.00
21545;BME280;10933;50.754;11.508;2022-07-17T02:21:29;100596.53;;;6.86;100.00
21545;BME280;10933;50.754;11.508;2022-07-17T02:23:55;100600.00;;;6.80;100.00
21545;BME280;10933;50.754;11.508;2022-07-17T02:26:21;100584.75;;;6.74;100.00
21545;BME280;10933;50.754;11.508;2022-07-17T02:28:47;100592.78;;;6.74;100.00
21545;BME280;10933;50.754;11.508;2022-07-17T02:31:14;100594.38;;;6.62;100.00
21545;BME280;10933;50.754;11.508;2022-07-17T02:33:40;100595.78;;;6.58;100.00
21545;BME280;10933;50.754;11.508;2022-07-17T02:36:06;100589.81;;;6.56;100.00
21545;BME280;10933;50.754;11.508;2022-07-17T02:38:32;100592.69;;;6.54;100.00
21545;BME280;10933;50.754;11.508;2022-07-17T02:40:59;100600.53;;;6.56;100.00
21545;BME280;10933;50.754;11.508;2022-07-17T02:43:25;100606.09;;;6.54;100.00
21545;BME280;10933;50.754;11.508;2022-07-17T02:45:51;100602.78;;;6.52;100.00
21545;BME280;10933;50.754;11.508;2022-07-17T02:48:17;100606.69;;;6.49;100.00
21545;BME280;10933;50.754;11.508;2022-07-17T02:50:43;100612.44;;;6.46;100.00
21545;BME280;10933;50.754;11.508;2022-07-17T02:53:10;100605.41;;;6.45;100.00
21545;BME280;10933;50.754;11.508;2022-07-17T02:55:36;100609.13;;;6.44;100.00
21545;BME280;10933;50.754;11.508;2022-07-17T02:58:02;100610.97;;;6.44;100.00
21545;BME280;10933;50.754;11.508;2022-07-17T03:00:29;100609.53;;;6.41;100.00
21545;BME280;10933;50.754;11.508;2022-07-17T03:02:55;100610.34;;;6.35;100.00
21545;BME280;10933;50.754;11.508;2022-07-17T03:05:22;100617.09;;;6.31;100.00
21545;BME280;10933;50.754;11.508;2022-07-17T03:07:49;100616.25;;;6.31;100.00
21545;BME280;10933;50.754;11.508;2022-07-17T03:10:15;100621.19;;;6.27;100.00
21545;BME280;10933;50.754;11.508;2022-07-17T03:12:42;100616.88;;;6.26;100.00
21545;BME280;10933;50.754;11.508;2022-07-17T03:15:09;100619.78;;;6.31;100.00
21545;BME280;10933;50.754;11.508;2022-07-17T03:17:37;100623.88;;;6.27;100.00
21545;BME280;10933;50.754;11.508;2022-07-17T03:20:04;100623.88;;;6.27;100.00
21545;BME280;10933;50.754;11.508;2022-07-17T03:22:31;100625.72;;;6.27;100.00
21545;BME280;10933;50.754;11.508;2022-07-17T03:24:57;100618.53;;;6.27;100.00
21545;BME280;10933;50.754;11.508;2022-07-17T03:27:23;100620.78;;;6.30;100.00
21545;BME280;10933;50.754;11.508;2022-07-17T03:29:49;100621.00;;;6.29;100.00
21545;BME280;10933;50.754;11.508;2022-07-17T03:32:15;100622.22;;;6.26;100.00
21545;BME280;10933;50.754;11.508;2022-07-17T03:34:42;100623.88;;;6.27;100.00
21545;BME280;10933;50.754;11.508;2022-07-17T03:37:08;100625.13;;;6.31;100.00
21545;BME280;10933;50.754;11.508;2022-07-17T03:39:34;100630.09;;;6.34;100.00
21545;BME280;10933;50.754;11.508;2022-07-17T03:42:00;100631.78;;;6.42;100.00
21545;BME280;10933;50.754;11.508;2022-07-17T03:44:26;100627.25;;;6.42;100.00
21545;BME280;10933;50.754;11.508;2022-07-17T03:46:53;100623.88;;;6.62;100.00
21545;BME280;10933;50.754;11.508;2022-07-17T03:49:19;100626.41;;;6.35;100.00
21545;BME280;10933;50.754;11.508;2022-07-17T03:51:45;100623.00;;;6.20;100.00
21545;BME280;10933;50.754;11.508;2022-07-17T03:54:11;100633.72;;;6.20;100.00
21545;BME280;10933;50.754;11.508;2022-07-17T03:56:37;100632.06;;;6.19;100.00
21545;BME280;10933;50.754;11.508;2022-07-17T03:59:03;100637.03;;;6.22;100.00
21545;BME280;10933;50.754;11.508;2022-07-17T04:01:30;100627.97;;;6.23;100.00
21545;BME280;10933;50.754;11.508;2022-07-17T04:03:56;100633.78;;;6.33;100.00
21545;BME280;10933;50.754;11.508;2022-07-17T04:06:22;100628.69;;;6.38;100.00
21545;BME280;10933;50.754;11.508;2022-07-17T04:08:48;100632.97;;;6.67;100.00
21545;BME280;10933;50.754;11.508;2022-07-17T04:11:14;100632.66;;;6.97;100.00
21545;BME280;10933;50.754;11.508;2022-07-17T04:13:41;100630.56;;;7.73;100.00
21545;BME280;10933;50.754;11.508;2022-07-17T04:16:07;100630.78;;;7.78;100.00
21545;BME280;10933;50.754;11.508;2022-07-17T04:18:35;100632.53;;;8.70;100.00
21545;BME280;10933;50.754;11.508;2022-07-17T04:21:04;100628.81;;;9.16;100.00
21545;BME280;10933;50.754;11.508;2022-07-17T04:23:31;100619.78;;;9.35;100.00
21545;BME280;10933;50.754;11.508;2022-07-17T04:25:57;100622.97;;;9.82;100.00
21545;BME280;10933;50.754;11.508;2022-07-17T04:28:24;100627.53;;;10.07;100.00
21545;BME280;10933;50.754;11.508;2022-07-17T04:30:50;100629.44;;;9.11;100.00
21545;BME280;10933;50.754;11.508;2022-07-17T04:33:17;100628.06;;;10.40;100.00
21545;BME280;10933;50.754;11.508;2022-07-17T04:35:43;100636.66;;;11.22;100.00
21545;BME280;10933;50.754;11.508;2022-07-17T04:38:10;100631.88;;;11.77;100.00
21545;BME280;10933;50.754;11.508;2022-07-17T04:40:37;100629.47;;;12.11;100.00
21545;BME280;10933;50.754;11.508;2022-07-17T04:43:05;100632.78;;;11.60;100.00
21545;BME280;10933;50.754;11.508;2022-07-17T04:45:31;100641.13;;;10.43;100.00
21545;BME280;10933;50.754;11.508;2022-07-17T04:47:58;100635.91;;;11.45;100.00
21545;BME280;10933;50.754;11.508;2022-07-17T04:50:24;100641.81;;;11.24;100.00
21545;BME280;10933;50.754;11.508;2022-07-17T04:52:50;100640.38;;;10.73;100.00
21545;BME280;10933;50.754;11.508;2022-07-17T04:55:16;100638.19;;;11.30;100.00
21545;BME280;10933;50.754;11.508;2022-07-17T04:57:43;100641.41;;;11.08;100.00
21545;BME280;10933;50.754;11.508;2022-07-17T05:00:11;100638.66;;;11.27;100.00
21545;BME280;10933;50.754;11.508;2022-07-17T05:02:37;100643.78;;;11.88;100.00
21545;BME280;10933;50.754;11.508;2022-07-17T05:05:04;100635.94;;;13.09;100.00
21545;BME280;10933;50.754;11.508;2022-07-17T05:07:30;100641.91;;;13.22;100.00
21545;BME280;10933;50.754;11.508;2022-07-17T05:09:56;100641.97;;;12.99;100.00
21545;BME280;10933;50.754;11.508;2022-07-17T05:12:22;100641.59;;;12.20;100.00
21545;BME280;10933;50.754;11.508;2022-07-17T05:14:49;100639.63;;;13.31;100.00
21545;BME280;10933;50.754;11.508;2022-07-17T05:17:15;100650.59;;;13.98;100.00
21545;BME280;10933;50.754;11.508;2022-07-17T05:19:41;100658.31;;;15.00;100.00
21545;BME280;10933;50.754;11.508;2022-07-17T05:22:07;100658.78;;;15.41;100.00
21545;BME280;10933;50.754;11.508;2022-07-17T05:24:33;100656.47;;;15.55;100.00
21545;BME280;10933;50.754;11.508;2022-07-17T05:27:00;100659.28;;;14.00;100.00
21545;BME280;10933;50.754;11.508;2022-07-17T05:29:27;100670.97;;;14.51;100.00
21545;BME280;10933;50.754;11.508;2022-07-17T05:31:53;100658.88;;;15.02;100.00
21545;BME280;10933;50.754;11.508;2022-07-17T05:34:20;100669.16;;;15.22;100.00
21545;BME280;10933;50.754;11.508;2022-07-17T05:36:46;100661.16;;;14.89;100.00
21545;BME280;10933;50.754;11.508;2022-07-17T05:39:13;100672.03;;;15.86;100.00
21545;BME280;10933;50.754;11.508;2022-07-17T05:41:39;100671.31;;;16.33;91.56
21545;BME280;10933;50.754;11.508;2022-07-17T05:44:06;100674.06;;;17.43;88.47
21545;BME280;10933;50.754;11.508;2022-07-17T05:46:32;100675.16;;;17.47;81.21
21545;BME280;10933;50.754;11.508;2022-07-17T05:48:58;100669.38;;;15.92;99.73
21545;BME280;10933;50.754;11.508;2022-07-17T05:51:24;100670.56;;;17.58;86.05
21545;BME280;10933;50.754;11.508;2022-07-17T05:53:50;100681.28;;;18.05;76.84
21545;BME280;10933;50.754;11.508;2022-07-17T05:56:16;100685.56;;;17.55;78.62
21545;BME280;10933;50.754;11.508;2022-07-17T05:58:42;100673.28;;;16.85;77.72
21545;BME280;10933;50.754;11.508;2022-07-17T06:01:09;100679.06;;;16.94;78.47
21545;BME280;10933;50.754;11.508;2022-07-17T06:03:35;100667.22;;;15.99;88.16
21545;BME280;10933;50.754;11.508;2022-07-17T06:06:01;100661.78;;;15.99;89.41
21545;BME280;10933;50.754;11.508;2022-07-17T06:08:27;100662.78;;;16.62;88.74
21545;BME280;10933;50.754;11.508;2022-07-17T06:10:53;100672.25;;;17.89;82.70
21545;BME280;10933;50.754;11.508;2022-07-17T06:13:19;100665.91;;;17.63;79.21
21545;BME280;10933;50.754;11.508;2022-07-17T06:15:45;100661.34;;;18.10;76.69
21545;BME280;10933;50.754;11.508;2022-07-17T06:18:11;100659.25;;;19.02;71.98
21545;BME280;10933;50.754;11.508;2022-07-17T06:20:38;100659.44;;;20.09;66.55
21545;BME280;10933;50.754;11.508;2022-07-17T06:23:04;100648.97;;;17.51;75.22
21545;BME280;10933;50.754;11.508;2022-07-17T06:25:30;100647.13;;;19.67;68.92
21545;BME280;10933;50.754;11.508;2022-07-17T06:27:56;100654.25;;;20.03;64.79
21545;BME280;10933;50.754;11.508;2022-07-17T06:30:22;100641.97;;;17.81;72.33
21545;BME280;10933;50.754;11.508;2022-07-17T06:32:48;100644.34;;;19.33;67.21
21545;BME280;10933;50.754;11.508;2022-07-17T06:35:14;100640.56;;;17.78;71.23
21545;BME280;10933;50.754;11.508;2022-07-17T06:37:40;100643.75;;;19.36;67.33
21545;BME280;10933;50.754;11.508;2022-07-17T06:40:07;100643.59;;;18.22;70.33
21545;BME280;10933;50.754;11.508;2022-07-17T06:42:33;100650.56;;;18.85;64.70
21545;BME280;10933;50.754;11.508;2022-07-17T06:45:00;100630.91;;;18.83;67.84
21545;BME280;10933;50.754;11.508;2022-07-17T06:47:26;100641.56;;;20.70;61.79
21545;BME280;10933;50.754;11.508;2022-07-17T06:49:52;100646.00;;;21.89;56.93
21545;BME280;10933;50.754;11.508;2022-07-17T06:52:18;100652.97;;;22.32;55.62
21545;BME280;10933;50.754;11.508;2022-07-17T06:54:44;100664.97;;;22.83;53.80
21545;BME280;10933;50.754;11.508;2022-07-17T06:57:10;100668.00;;;23.23;53.36
21545;BME280;10933;50.754;11.508;2022-07-17T06:59:36;100672.03;;;23.53;49.70
21545;BME280;10933;50.754;11.508;2022-07-17T07:02:02;100677.84;;;24.10;48.10
21545;BME280;10933;50.754;11.508;2022-07-17T07:04:28;100670.06;;;25.70;45.66
21545;BME280;10933;50.754;11.508;2022-07-17T07:06:55;100666.41;;;23.58;46.19
21545;BME280;10933;50.754;11.508;2022-07-17T07:09:21;100661.19;;;22.93;51.70
21545;BME280;10933;50.754;11.508;2022-07-17T07:11:47;100664.91;;;22.42;49.68
21545;BME280;10933;50.754;11.508;2022-07-17T07:14:13;100655.81;;;21.57;51.12
21545;BME280;10933;50.754;11.508;2022-07-17T07:16:39;100664.31;;;23.99;44.28
21545;BME280;10933;50.754;11.508;2022-07-17T07:19:05;100663.66;;;23.58;46.65
21545;BME280;10933;50.754;11.508;2022-07-17T07:21:32;100672.19;;;23.70;46.67
21545;BME280;10933;50.754;11.508;2022-07-17T07:23:58;100666.31;;;24.92;43.35
21545;BME280;10933;50.754;11.508;2022-07-17T07:26:24;100657.97;;;24.83;44.30
21545;BME280;10933;50.754;11.508;2022-07-17T07:28:51;100654.66;;;23.66;45.95
21545;BME280;10933;50.754;11.508;2022-07-17T07:31:17;100642.72;;;23.93;47.19
21545;BME280;10933;50.754;11.508;2022-07-17T07:33:43;100651.63;;;25.40;44.03
21545;BME280;10933;50.754;11.508;2022-07-17T07:36:10;100645.66;;;27.72;40.16
21545;BME280;10933;50.754;11.508;2022-07-17T07:38:36;100639.94;;;25.34;40.03
21545;BME280;10933;50.754;11.508;2022-07-17T07:41:03;100631.16;;;24.67;41.57
21545;BME280;10933;50.754;11.508;2022-07-17T07:43:29;100634.47;;;27.18;37.62
21545;BME280;10933;50.754;11.508;2022-07-17T07:45:58;100639.44;;;28.41;36.06
21545;BME280;10933;50.754;11.508;2022-07-17T07:48:25;100631.81;;;26.92;38.90
21545;BME280;10933;50.754;11.508;2022-07-17T07:50:51;100635.97;;;27.78;36.21
21545;BME280;10933;50.754;11.508;2022-07-17T07:53:17;100623.47;;;27.30;38.16
21545;BME280;10933;50.754;11.508;2022-07-17T07:55:43;100624.41;;;28.66;34.36
21545;BME280;10933;50.754;11.508;2022-07-17T07:58:11;100605.97;;;25.60;38.18
21545;BME280;10933;50.754;11.508;2022-07-17T08:00:39;100603.41;;;26.45;38.44
21545;BME280;10933;50.754;11.508;2022-07-17T08:03:06;100597.47;;;28.91;35.68
21545;BME280;10933;50.754;11.508;2022-07-17T08:05:33;100600.41;;;30.82;33.01
21545;BME280;10933;50.754;11.508;2022-07-17T08:07:59;100590.38;;;29.06;32.14
21545;BME280;10933;50.754;11.508;2022-07-17T08:10:26;100595.59;;;29.60;31.39
21545;BME280;10933;50.754;11.508;2022-07-17T08:12:52;100592.53;;;29.37;33.41
21545;BME280;10933;50.754;11.508;2022-07-17T08:15:19;100588.31;;;28.79;33.16
21545;BME280;10933;50.754;11.508;2022-07-17T08:17:47;100586.69;;;30.42;31.83
21545;BME280;10933;50.754;11.508;2022-07-17T08:20:18;100589.47;;;31.09;30.35
21545;BME280;10933;50.754;11.508;2022-07-17T08:22:46;100596.81;;;31.32;29.16
21545;BME280;10933;50.754;11.508;2022-07-17T08:25:13;100592.75;;;30.00;31.14
21545;BME280;10933;50.754;11.508;2022-07-17T08:27:40;100593.22;;;22.79;39.00
21545;BME280;10933;50.754;11.508;2022-07-17T08:30:09;100597.03;;;25.37;35.88
21545;BME280;10933;50.754;11.508;2022-07-17T08:32:36;100589.66;;;23.87;36.92
21545;BME280;10933;50.754;11.508;2022-07-17T08:35:03;100581.38;;;26.86;37.44
21545;BME280;10933;50.754;11.508;2022-07-17T08:37:29;100603.75;;;28.19;34.39
21545;BME280;10933;50.754;11.508;2022-07-17T08:39:56;100612.50;;;27.96;32.66
21545;BME280;10933;50.754;11.508;2022-07-17T08:42:22;100611.84;;;30.02;30.74
21545;BME280;10933;50.754;11.508;2022-07-17T08:44:48;100612.19;;;28.10;31.59
21545;BME280;10933;50.754;11.508;2022-07-17T08:47:15;100613.03;;;27.90;31.90
21545;BME280;10933;50.754;11.508;2022-07-17T08:49:44;100606.38;;;26.98;33.34
21545;BME280;10933;50.754;11.508;2022-07-17T08:52:13;100608.00;;;26.23;32.60
21545;BME280;10933;50.754;11.508;2022-07-17T08:54:40;100609.91;;;25.41;32.69
21545;BME280;10933;50.754;11.508;2022-07-17T08:57:07;100606.94;;;26.07;32.07
21545;BME280;10933;50.754;11.508;2022-07-17T08:59:33;100604.63;;;23.95;35.03
21545;BME280;10933;50.754;11.508;2022-07-17T09:02:00;100606.44;;;23.99;34.67
21545;BME280;10933;50.754;11.508;2022-07-17T09:04:27;100599.81;;;27.74;31.70
21545;BME280;10933;50.754;11.508;2022-07-17T09:07:04;100595.75;;;30.23;27.50
21545;BME280;10933;50.754;11.508;2022-07-17T09:09:33;100594.91;;;30.86;26.27
21545;BME280;10933;50.754;11.508;2022-07-17T09:12:02;100587.31;;;26.38;33.32
21545;BME280;10933;50.754;11.508;2022-07-17T09:14:42;100592.78;;;30.32;28.57
21545;BME280;10933;50.754;11.508;2022-07-17T09:17:11;100585.38;;;26.97;31.57
21545;BME280;10933;50.754;11.508;2022-07-17T09:19:43;100585.22;;;27.65;30.18
21545;BME280;10933;50.754;11.508;2022-07-17T09:24:44;100576.88;;;25.88;31.64
21545;BME280;10933;50.754;11.508;2022-07-17T09:27:12;100565.88;;;28.96;30.89
21545;BME280;10933;50.754;11.508;2022-07-17T09:32:22;100562.63;;;30.18;29.91
21545;BME280;10933;50.754;11.508;2022-07-17T09:34:50;100559.53;;;31.21;29.38
21545;BME280;10933;50.754;11.508;2022-07-17T09:37:17;100562.34;;;32.48;27.64
21545;BME280;10933;50.754;11.508;2022-07-17T09:39:44;100574.94;;;32.38;25.03
21545;BME280;10933;50.754;11.508;2022-07-17T09:42:23;100558.63;;;26.51;31.37
21545;BME280;10933;50.754;11.508;2022-07-17T09:45:09;100548.59;;;30.78;28.29
21545;BME280;10933;50.754;11.508;2022-07-17T09:47:38;100547.63;;;30.07;29.08
21545;BME280;10933;50.754;11.508;2022-07-17T09:50:06;100555.19;;;31.24;27.61
21545;BME280;10933;50.754;11.508;2022-07-17T09:52:35;100562.44;;;32.29;26.27
21545;BME280;10933;50.754;11.508;2022-07-17T09:55:02;100553.19;;;30.23;27.34
21545;BME280;10933;50.754;11.508;2022-07-17T09:57:30;100545.59;;;29.08;28.97
21545;BME280;10933;50.754;11.508;2022-07-17T10:00:04;100554.06;;;32.29;25.81
21545;BME280;10933;50.754;11.508;2022-07-17T10:02:31;100540.50;;;27.34;30.62
21545;BME280;10933;50.754;11.508;2022-07-17T10:04:59;100543.16;;;31.78;26.09
21545;BME280;10933;50.754;11.508;2022-07-17T10:07:25;100543.09;;;32.92;23.80
21545;BME280;10933;50.754;11.508;2022-07-17T10:09:52;100535.22;;;28.80;28.13
21545;BME280;10933;50.754;11.508;2022-07-17T10:12:20;100550.78;;;31.81;27.01
21545;BME280;10933;50.754;11.508;2022-07-17T10:14:47;100548.53;;;32.82;24.83
21545;BME280;10933;50.754;11.508;2022-07-17T10:17:19;100550.41;;;34.45;24.29
21545;BME280;10933;50.754;11.508;2022-07-17T10:19:55;100546.84;;;34.08;22.20
21545;BME280;10933;50.754;11.508;2022-07-17T10:22:23;100539.44;;;27.92;30.95
21545;BME280;10933;50.754;11.508;2022-07-17T10:24:54;100539.28;;;27.55;32.43
21545;BME280;10933;50.754;11.508;2022-07-17T10:27:29;100533.41;;;26.74;31.60
21545;BME280;10933;50.754;11.508;2022-07-17T10:30:08;100538.91;;;28.23;31.75
21545;BME280;10933;50.754;11.508;2022-07-17T10:32:38;100537.91;;;30.99;25.87
21545;BME280;10933;50.754;11.508;2022-07-17T10:35:09;100536.78;;;30.84;25.68
21545;BME280;10933;50.754;11.508;2022-07-17T10:40:11;100526.53;;;27.09;31.07
21545;BME280;10933;50.754;11.508;2022-07-17T10:42:43;100532.75;;;28.05;30.92
21545;BME280;10933;50.754;11.508;2022-07-17T10:45:22;100522.94;;;25.56;31.03
21545;BME280;10933;50.754;11.508;2022-07-17T10:47:57;100526.75;;;28.15;30.10
21545;BME280;10933;50.754;11.508;2022-07-17T10:50:47;100521.97;;;29.42;26.86
21545;BME280;10933;50.754;11.508;2022-07-17T10:53:25;100532.31;;;31.53;25.49
21545;BME280;10933;50.754;11.508;2022-07-17T10:55:56;100528.34;;;31.35;26.00
21545;BME280;10933;50.754;11.508;2022-07-17T10:58:29;100526.88;;;32.52;25.07
21545;BME280;10933;50.754;11.508;2022-07-17T11:01:14;100532.25;;;29.53;24.25
21545;BME280;10933;50.754;11.508;2022-07-17T11:04:00;100519.13;;;28.86;25.72
21545;BME280;10933;50.754;11.508;2022-07-17T11:06:35;100511.97;;;27.99;27.13
21545;BME280;10933;50.754;11.508;2022-07-17T11:09:04;100513.25;;;27.69;29.55
21545;BME280;10933;50.754;11.508;2022-07-17T11:11:41;100503.44;;;28.29;26.59
21545;BME280;10933;50.754;11.508;2022-07-17T11:16:43;100499.53;;;27.39;28.55
21545;BME280;10933;50.754;11.508;2022-07-17T11:19:10;100496.47;;;27.20;29.99
21545;BME280;10933;50.754;11.508;2022-07-17T11:21:47;100498.03;;;27.75;28.38
21545;BME280;10933;50.754;11.508;2022-07-17T11:24:14;100502.25;;;26.85;30.81
21545;BME280;10933;50.754;11.508;2022-07-17T11:26:41;100501.91;;;28.07;29.26
21545;BME280;10933;50.754;11.508;2022-07-17T11:29:07;100498.59;;;27.35;29.36
21545;BME280;10933;50.754;11.508;2022-07-17T11:31:33;100492.22;;;26.93;30.51
21545;BME280;10933;50.754;11.508;2022-07-17T11:34:06;100487.47;;;28.13;29.33
21545;BME280;10933;50.754;11.508;2022-07-17T11:36:40;100491.94;;;30.89;26.77
21545;BME280;10933;50.754;11.508;2022-07-17T11:39:17;100493.25;;;30.95;25.48
21545;BME280;10933;50.754;11.508;2022-07-17T11:41:52;100496.97;;;27.34;28.89
21545;BME280;10933;50.754;11.508;2022-07-17T11:44:21;100488.75;;;28.40;30.50
21545;BME280;10933;50.754;11.508;2022-07-17T11:46:49;100489.88;;;26.62;31.57
21545;BME280;10933;50.754;11.508;2022-07-17T11:49:33;100493.00;;;26.52;31.08
21545;BME280;10933;50.754;11.508;2022-07-17T11:54:50;100489.75;;;27.54;29.84
21545;BME280;10933;50.754;11.508;2022-07-17T11:57:18;100488.97;;;29.40;27.67
21545;BME280;10933;50.754;11.508;2022-07-17T11:59:46;100486.34;;;28.27;27.99
21545;BME280;10933;50.754;11.508;2022-07-17T12:02:14;100475.25;;;27.69;28.24
21545;BME280;10933;50.754;11.508;2022-07-17T12:04:51;100486.31;;;27.03;29.15
21545;BME280;10933;50.754;11.508;2022-07-17T12:07:19;100485.28;;;27.62;30.09
21545;BME280;10933;50.754;11.508;2022-07-17T12:09:45;100478.81;;;27.58;27.26
21545;BME280;10933;50.754;11.508;2022-07-17T12:12:27;100476.56;;;26.76;28.66
21545;BME280;10933;50.754;11.508;2022-07-17T12:14:54;100465.00;;;27.37;29.03
21545;BME280;10933;50.754;11.508;2022-07-17T12:17:22;100478.47;;;27.26;29.11
21545;BME280;10933;50.754;11.508;2022-07-17T12:19:48;100472.38;;;26.91;29.94
21545;BME280;10933;50.754;11.508;2022-07-17T12:22:14;100466.28;;;29.66;26.38
21545;BME280;10933;50.754;11.508;2022-07-17T12:24:42;100471.25;;;31.10;23.74
21545;BME280;10933;50.754;11.508;2022-07-17T12:27:14;100468.63;;;29.36;25.43
21545;BME280;10933;50.754;11.508;2022-07-17T12:29:41;100464.75;;;28.85;27.60
21545;BME280;10933;50.754;11.508;2022-07-17T12:32:09;100464.59;;;27.59;28.48
21545;BME280;10933;50.754;11.508;2022-07-17T12:34:41;100459.75;;;29.74;25.37
21545;BME280;10933;50.754;11.508;2022-07-17T12:37:15;100460.66;;;30.26;24.81
21545;BME280;10933;50.754;11.508;2022-07-17T12:39:43;100462.03;;;28.11;27.42
21545;BME280;10933;50.754;11.508;2022-07-17T12:42:09;100459.97;;;27.18;27.59
21545;BME280;10933;50.754;11.508;2022-07-17T12:44:36;100462.47;;;28.62;26.87
21545;BME280;10933;50.754;11.508;2022-07-17T12:47:02;100447.06;;;29.33;26.04
21545;BME280;10933;50.754;11.508;2022-07-17T12:49:29;100451.66;;;27.96;27.52
21545;BME280;10933;50.754;11.508;2022-07-17T12:51:56;100448.44;;;25.86;28.77
21545;BME280;10933;50.754;11.508;2022-07-17T12:54:22;100449.78;;;25.62;28.89